sensor_id;sensor_type;location;lat;lon;timestamp;temperature;humidity
50013;DHT22;35901;48.694;9.476;2023-03-01T00:00:26;-2.20;99.90
50013;DHT22;35901;48.694;9.476;2023-03-01T00:02:53;-2.70;99.90
50013;DHT22;35901;48.694;9.476;2023-03-01T00:05:19;-3.00;99.90
50013;DHT22;35901;48.694;9.476;2023-03-01T00:07:45;-3.30;99.90
50013;DHT22;35901;48.694;9.476;2023-03-01T00:10:13;-3.50;99.90
50013;DHT22;35901;48.694;9.476;2023-03-01T00:12:39;-3.10;99.90
50013;DHT22;35901;48.694;9.476;2023-03-01T00:15:05;-2.70;99.90
50013;DHT22;35901;48.694;9.476;2023-03-01T00:17:30;-2.40;99.90
50013;DHT22;35901;48.694;9.476;2023-03-01T00:19:56;-2.30;99.90
50013;DHT22;35901;48.694;9.476;2023-03-01T00:22:22;-2.20;99.90
50013;DHT22;35901;48.694;9.476;2023-03-01T00:24:48;-2.20;99.90
50013;DHT22;35901;48.694;9.476;2023-03-01T00:27:14;-2.20;99.90
50013;DHT22;35901;48.694;9.476;2023-03-01T00:29:40;-2.20;99.90
50013;DHT22;35901;48.694;9.476;2023-03-01T00:32:05;-2.40;99.90
50013;DHT22;35901;48.694;9.476;2023-03-01T00:34:31;-2.40;99.90
50013;DHT22;35901;48.694;9.476;2023-03-01T00:36:56;-2.40;99.90
50013;DHT22;35901;48.694;9.476;2023-03-01T00:39:30;-2.40;99.90
50013;DHT22;35901;48.694;9.476;2023-03-01T00:41:56;-2.50;99.90
50013;DHT22;35901;48.694;9.476;2023-03-01T00:44:22;-2.50;99.90
50013;DHT22;35901;48.694;9.476;2023-03-01T00:46:48;-2.50;99.90
50013;DHT22;35901;48.694;9.476;2023-03-01T00:49:14;-2.70;99.90
50013;DHT22;35901;48.694;9.476;2023-03-01T00:51:40;-3.00;99.90
50013;DHT22;35901;48.694;9.476;2023-03-01T00:54:09;-3.30;99.90
50013;DHT22;35901;48.694;9.476;2023-03-01T00:56:35;-3.60;99.90
50013;DHT22;35901;48.694;9.476;2023-03-01T00:59:01;-3.80;99.90
50013;DHT22;35901;48.694;9.476;2023-03-01T01:01:29;-4.00;99.90
50013;DHT22;35901;48.694;9.476;2023-03-01T01:04:10;-4.20;99.90
50013;DHT22;35901;48.694;9.476;2023-03-01T01:06:40;-4.20;99.90
50013;DHT22;35901;48.694;9.476;2023-03-01T01:09:12;-4.00;99.90
50013;DHT22;35901;48.694;9.476;2023-03-01T01:11:50;-3.90;99.90
50013;DHT22;35901;48.694;9.476;2023-03-01T01:14:17;-4.00;99.90
50013;DHT22;35901;48.694;9.476;2023-03-01T01:16:43;-3.50;99.90
50013;DHT22;35901;48.694;9.476;2023-03-01T01:19:10;-2.90;99.90
50013;DHT22;35901;48.694;9.476;2023-03-01T01:21:36;-2.60;99.90
50013;DHT22;35901;48.694;9.476;2023-03-01T01:24:04;-2.30;99.90
50013;DHT22;35901;48.694;9.476;2023-03-01T01:26:32;-2.30;99.90
50013;DHT22;35901;48.694;9.476;2023-03-01T01:28:59;-2.20;99.90
50013;DHT22;35901;48.694;9.476;2023-03-01T01:31:26;-2.10;99.90
50013;DHT22;35901;48.694;9.476;2023-03-01T01:33:55;-2.10;99.90
50013;DHT22;35901;48.694;9.476;2023-03-01T01:36:21;-2.00;99.90
50013;DHT22;35901;48.694;9.476;2023-03-01T01:38:47;-1.90;99.90
50013;DHT22;35901;48.694;9.476;2023-03-01T01:41:13;-1.80;99.90
50013;DHT22;35901;48.694;9.476;2023-03-01T01:43:41;-1.70;99.90
50013;DHT22;35901;48.694;9.476;2023-03-01T01:46:29;-1.70;99.90
50013;DHT22;35901;48.694;9.476;2023-03-01T01:49:00;-1.80;99.90
50013;DHT22;35901;48.694;9.476;2023-03-01T01:51:33;-1.90;99.90
50013;DHT22;35901;48.694;9.476;2023-03-01T01:54:13;-2.00;99.90
50013;DHT22;35901;48.694;9.476;2023-03-01T01:56:42;-2.10;99.90
50013;DHT22;35901;48.694;9.476;2023-03-01T01:59:10;-2.10;99.90
50013;DHT22;35901;48.694;9.476;2023-03-01T02:01:37;-2.00;99.90
50013;DHT22;35901;48.694;9.476;2023-03-01T02:04:03;-2.00;99.90
50013;DHT22;35901;48.694;9.476;2023-03-01T02:06:39;-2.00;99.90
50013;DHT22;35901;48.694;9.476;2023-03-01T02:09:11;-2.00;99.90
50013;DHT22;35901;48.694;9.476;2023-03-01T02:11:38;-2.00;99.90
50013;DHT22;35901;48.694;9.476;2023-03-01T02:14:04;-1.90;99.90
50013;DHT22;35901;48.694;9.476;2023-03-01T02:16:30;-1.90;99.90
50013;DHT22;35901;48.694;9.476;2023-03-01T02:18:56;-1.80;99.90
50013;DHT22;35901;48.694;9.476;2023-03-01T02:21:37;-1.70;99.90
50013;DHT22;35901;48.694;9.476;2023-03-01T02:26:53;-1.60;99.90
50013;DHT22;35901;48.694;9.476;2023-03-01T02:29:21;-1.50;99.90
50013;DHT22;35901;48.694;9.476;2023-03-01T02:31:48;-1.50;99.90
50013;DHT22;35901;48.694;9.476;2023-03-01T02:34:18;-1.40;99.90
50013;DHT22;35901;48.694;9.476;2023-03-01T02:37:29;-1.40;99.90
50013;DHT22;35901;48.694;9.476;2023-03-01T02:39:44;-1.40;99.90
50013;DHT22;35901;48.694;9.476;2023-03-01T02:42:14;-1.50;99.90
50013;DHT22;35901;48.694;9.476;2023-03-01T02:44:40;-1.50;99.90
50013;DHT22;35901;48.694;9.476;2023-03-01T02:47:06;-1.50;99.90
50013;DHT22;35901;48.694;9.476;2023-03-01T02:49:34;-1.50;99.90
50013;DHT22;35901;48.694;9.476;2023-03-01T02:55:13;-1.40;99.90
50013;DHT22;35901;48.694;9.476;2023-03-01T02:57:41;-1.40;99.90
50013;DHT22;35901;48.694;9.476;2023-03-01T03:00:13;-1.40;99.90
50013;DHT22;35901;48.694;9.476;2023-03-01T03:02:50;-1.30;99.90
50013;DHT22;35901;48.694;9.476;2023-03-01T03:05:27;-1.20;99.90
50013;DHT22;35901;48.694;9.476;2023-03-01T03:07:57;-1.20;99.90
50013;DHT22;35901;48.694;9.476;2023-03-01T03:10:30;-1.20;99.90
50013;DHT22;35901;48.694;9.476;2023-03-01T03:13:05;-1.10;99.90
50013;DHT22;35901;48.694;9.476;2023-03-01T03:15:31;-1.10;99.90
50013;DHT22;35901;48.694;9.476;2023-03-01T03:18:03;-1.00;99.90
50013;DHT22;35901;48.694;9.476;2023-03-01T03:20:30;-1.00;99.90
50013;DHT22;35901;48.694;9.476;2023-03-01T03:22:58;-1.00;99.90
50013;DHT22;35901;48.694;9.476;2023-03-01T03:25:25;-1.10;99.90
50013;DHT22;35901;48.694;9.476;2023-03-01T03:27:52;-1.10;99.90
50013;DHT22;35901;48.694;9.476;2023-03-01T03:30:25;-1.10;99.90
50013;DHT22;35901;48.694;9.476;2023-03-01T03:32:51;-1.00;99.90
50013;DHT22;35901;48.694;9.476;2023-03-01T03:35:30;-0.90;99.90
50013;DHT22;35901;48.694;9.476;2023-03-01T03:37:58;-1.00;99.90
50013;DHT22;35901;48.694;9.476;2023-03-01T03:40:32;-0.90;99.90
50013;DHT22;35901;48.694;9.476;2023-03-01T03:42:58;-0.90;99.90
50013;DHT22;35901;48.694;9.476;2023-03-01T03:45:24;-0.90;99.90
50013;DHT22;35901;48.694;9.476;2023-03-01T03:47:50;-0.90;99.90
50013;DHT22;35901;48.694;9.476;2023-03-01T03:50:17;-1.00;99.90
50013;DHT22;35901;48.694;9.476;2023-03-01T03:52:43;-1.00;99.90
50013;DHT22;35901;48.694;9.476;2023-03-01T03:55:10;-1.00;99.90
50013;DHT22;35901;48.694;9.476;2023-03-01T03:57:37;-1.00;99.90
50013;DHT22;35901;48.694;9.476;2023-03-01T04:00:04;-1.00;99.90
50013;DHT22;35901;48.694;9.476;2023-03-01T04:02:41;-1.00;99.90
50013;DHT22;35901;48.694;9.476;2023-03-01T04:05:07;-1.00;99.90
50013;DHT22;35901;48.694;9.476;2023-03-01T04:07:34;-1.00;99.90
50013;DHT22;35901;48.694;9.476;2023-03-01T04:10:01;-1.00;99.90
50013;DHT22;35901;48.694;9.476;2023-03-01T04:12:27;-1.00;99.90
50013;DHT22;35901;48.694;9.476;2023-03-01T04:14:52;-1.00;99.90
50013;DHT22;35901;48.694;9.476;2023-03-01T04:17:18;-1.00;99.90
50013;DHT22;35901;48.694;9.476;2023-03-01T04:19:44;-1.00;99.90
50013;DHT22;35901;48.694;9.476;2023-03-01T04:22:14;-1.00;99.90
50013;DHT22;35901;48.694;9.476;2023-03-01T04:24:43;-1.10;99.90
50013;DHT22;35901;48.694;9.476;2023-03-01T04:27:09;-1.00;99.90
50013;DHT22;35901;48.694;9.476;2023-03-01T04:29:34;-1.10;99.90
50013;DHT22;35901;48.694;9.476;2023-03-01T04:32:00;-1.10;99.90
50013;DHT22;35901;48.694;9.476;2023-03-01T04:34:26;-1.10;99.90
50013;DHT22;35901;48.694;9.476;2023-03-01T04:36:54;-1.10;99.90
50013;DHT22;35901;48.694;9.476;2023-03-01T04:39:20;-1.10;99.90
50013;DHT22;35901;48.694;9.476;2023-03-01T04:41:46;-1.10;99.90
50013;DHT22;35901;48.694;9.476;2023-03-01T04:44:13;-1.10;99.90
50013;DHT22;35901;48.694;9.476;2023-03-01T04:46:39;-1.10;99.90
50013;DHT22;35901;48.694;9.476;2023-03-01T04:49:04;-1.10;99.90
50013;DHT22;35901;48.694;9.476;2023-03-01T04:51:31;-1.10;99.90
50013;DHT22;35901;48.694;9.476;2023-03-01T04:53:58;-1.10;99.90
50013;DHT22;35901;48.694;9.476;2023-03-01T04:56:24;-1.00;99.90
50013;DHT22;35901;48.694;9.476;2023-03-01T04:58:49;-1.00;99.90
50013;DHT22;35901;48.694;9.476;2023-03-01T05:01:19;-1.00;99.90
50013;DHT22;35901;48.694;9.476;2023-03-01T05:03:50;-1.00;99.90
50013;DHT22;35901;48.694;9.476;2023-03-01T05:06:17;-1.00;99.90
50013;DHT22;35901;48.694;9.476;2023-03-01T05:08:43;-0.90;99.90
50013;DHT22;35901;48.694;9.476;2023-03-01T05:11:09;-0.90;99.90
50013;DHT22;35901;48.694;9.476;2023-03-01T05:13:37;-0.90;99.90
50013;DHT22;35901;48.694;9.476;2023-03-01T05:16:04;-0.90;99.90
50013;DHT22;35901;48.694;9.476;2023-03-01T05:18:32;-0.80;99.90
50013;DHT22;35901;48.694;9.476;2023-03-01T05:21:16;-0.80;99.90
50013;DHT22;35901;48.694;9.476;2023-03-01T05:23:42;-0.80;99.90
50013;DHT22;35901;48.694;9.476;2023-03-01T05:26:08;-0.80;99.90
50013;DHT22;35901;48.694;9.476;2023-03-01T05:28:34;-0.80;99.90
50013;DHT22;35901;48.694;9.476;2023-03-01T05:31:00;-0.80;99.90
50013;DHT22;35901;48.694;9.476;2023-03-01T05:33:26;-0.80;99.90
50013;DHT22;35901;48.694;9.476;2023-03-01T05:35:52;-0.80;99.90
50013;DHT22;35901;48.694;9.476;2023-03-01T05:38:20;-0.80;99.90
50013;DHT22;35901;48.694;9.476;2023-03-01T05:40:47;-0.80;99.90
50013;DHT22;35901;48.694;9.476;2023-03-01T05:43:15;-0.80;99.90
50013;DHT22;35901;48.694;9.476;2023-03-01T05:45:41;-0.80;99.90
50013;DHT22;35901;48.694;9.476;2023-03-01T05:48:08;-0.80;99.90
50013;DHT22;35901;48.694;9.476;2023-03-01T05:50:37;-0.80;99.90
50013;DHT22;35901;48.694;9.476;2023-03-01T05:53:08;-0.80;99.90
50013;DHT22;35901;48.694;9.476;2023-03-01T05:55:35;-0.90;99.90
50013;DHT22;35901;48.694;9.476;2023-03-01T05:58:02;-0.90;99.90
50013;DHT22;35901;48.694;9.476;2023-03-01T06:00:29;-1.00;99.90
50013;DHT22;35901;48.694;9.476;2023-03-01T06:02:57;-1.00;99.90
50013;DHT22;35901;48.694;9.476;2023-03-01T06:05:23;-1.10;99.90
50013;DHT22;35901;48.694;9.476;2023-03-01T06:07:49;-1.10;99.90
50013;DHT22;35901;48.694;9.476;2023-03-01T06:10:16;-1.10;99.90
50013;DHT22;35901;48.694;9.476;2023-03-01T06:12:42;-1.10;99.90
50013;DHT22;35901;48.694;9.476;2023-03-01T06:15:10;-1.10;99.90
50013;DHT22;35901;48.694;9.476;2023-03-01T06:17:38;-1.10;99.90
50013;DHT22;35901;48.694;9.476;2023-03-01T06:20:18;-1.20;99.90
50013;DHT22;35901;48.694;9.476;2023-03-01T06:22:45;-1.20;99.90
50013;DHT22;35901;48.694;9.476;2023-03-01T06:25:13;-1.00;99.90
50013;DHT22;35901;48.694;9.476;2023-03-01T06:27:40;-0.90;99.90
50013;DHT22;35901;48.694;9.476;2023-03-01T06:30:06;-0.80;99.90
50013;DHT22;35901;48.694;9.476;2023-03-01T06:32:33;-0.80;99.90
50013;DHT22;35901;48.694;9.476;2023-03-01T06:34:59;-0.70;99.90
50013;DHT22;35901;48.694;9.476;2023-03-01T06:37:25;-0.60;99.90
50013;DHT22;35901;48.694;9.476;2023-03-01T06:39:51;-0.50;99.90
50013;DHT22;35901;48.694;9.476;2023-03-01T06:42:16;-0.30;99.90
50013;DHT22;35901;48.694;9.476;2023-03-01T06:44:43;-0.10;99.90
50013;DHT22;35901;48.694;9.476;2023-03-01T06:47:09;0.00;99.90
50013;DHT22;35901;48.694;9.476;2023-03-01T06:49:34;0.10;99.90
50013;DHT22;35901;48.694;9.476;2023-03-01T06:52:00;0.30;99.90
50013;DHT22;35901;48.694;9.476;2023-03-01T06:54:26;0.50;99.90
50013;DHT22;35901;48.694;9.476;2023-03-01T06:56:51;0.70;99.90
50013;DHT22;35901;48.694;9.476;2023-03-01T06:59:17;0.80;99.90
50013;DHT22;35901;48.694;9.476;2023-03-01T07:01:43;1.10;99.90
50013;DHT22;35901;48.694;9.476;2023-03-01T07:04:10;1.30;99.90
50013;DHT22;35901;48.694;9.476;2023-03-01T07:06:36;1.70;99.90
50013;DHT22;35901;48.694;9.476;2023-03-01T07:09:02;1.80;99.90
50013;DHT22;35901;48.694;9.476;2023-03-01T07:11:27;1.70;99.90
50013;DHT22;35901;48.694;9.476;2023-03-01T07:13:53;1.70;99.90
50013;DHT22;35901;48.694;9.476;2023-03-01T07:16:19;2.10;99.90
50013;DHT22;35901;48.694;9.476;2023-03-01T07:18:45;2.20;99.90
50013;DHT22;35901;48.694;9.476;2023-03-01T07:21:13;2.40;99.90
50013;DHT22;35901;48.694;9.476;2023-03-01T07:23:39;2.50;99.90
50013;DHT22;35901;48.694;9.476;2023-03-01T07:26:05;2.70;99.90
50013;DHT22;35901;48.694;9.476;2023-03-01T07:28:31;2.50;99.90
50013;DHT22;35901;48.694;9.476;2023-03-01T07:31:05;2.60;99.90
50013;DHT22;35901;48.694;9.476;2023-03-01T07:33:31;3.00;99.90
50013;DHT22;35901;48.694;9.476;2023-03-01T07:36:02;3.30;99.90
50013;DHT22;35901;48.694;9.476;2023-03-01T07:38:28;3.30;99.90
50013;DHT22;35901;48.694;9.476;2023-03-01T07:41:01;3.30;99.90
50013;DHT22;35901;48.694;9.476;2023-03-01T07:43:28;3.30;99.90
50013;DHT22;35901;48.694;9.476;2023-03-01T07:45:54;3.30;99.90
50013;DHT22;35901;48.694;9.476;2023-03-01T07:48:20;3.30;99.90
50013;DHT22;35901;48.694;9.476;2023-03-01T07:50:46;3.30;99.90
50013;DHT22;35901;48.694;9.476;2023-03-01T07:53:12;3.30;99.90
50013;DHT22;35901;48.694;9.476;2023-03-01T07:55:38;3.60;99.90
50013;DHT22;35901;48.694;9.476;2023-03-01T07:58:04;3.60;99.90
50013;DHT22;35901;48.694;9.476;2023-03-01T08:00:30;3.80;99.90
50013;DHT22;35901;48.694;9.476;2023-03-01T08:02:59;4.20;99.90
50013;DHT22;35901;48.694;9.476;2023-03-01T08:05:25;4.20;99.90
50013;DHT22;35901;48.694;9.476;2023-03-01T08:07:50;4.20;99.90
50013;DHT22;35901;48.694;9.476;2023-03-01T08:10:16;4.00;99.90
50013;DHT22;35901;48.694;9.476;2023-03-01T08:12:42;4.30;99.90
50013;DHT22;35901;48.694;9.476;2023-03-01T08:15:08;4.20;99.90
50013;DHT22;35901;48.694;9.476;2023-03-01T08:17:34;3.80;99.90
50013;DHT22;35901;48.694;9.476;2023-03-01T08:20:00;4.30;99.90
50013;DHT22;35901;48.694;9.476;2023-03-01T08:22:25;4.30;99.90
50013;DHT22;35901;48.694;9.476;2023-03-01T08:24:51;4.10;99.90
50013;DHT22;35901;48.694;9.476;2023-03-01T08:27:17;4.40;99.90
50013;DHT22;35901;48.694;9.476;2023-03-01T08:29:43;4.90;99.90
50013;DHT22;35901;48.694;9.476;2023-03-01T08:32:09;4.20;99.90
50013;DHT22;35901;48.694;9.476;2023-03-01T08:34:34;4.10;99.90
50013;DHT22;35901;48.694;9.476;2023-03-01T08:37:01;4.20;99.90
50013;DHT22;35901;48.694;9.476;2023-03-01T08:39:27;4.30;99.90
50013;DHT22;35901;48.694;9.476;2023-03-01T08:41:52;4.70;99.90
50013;DHT22;35901;48.694;9.476;2023-03-01T08:44:18;5.00;99.80
50013;DHT22;35901;48.694;9.476;2023-03-01T08:46:46;4.30;98.60
50013;DHT22;35901;48.694;9.476;2023-03-01T08:49:17;4.20;99.70
50013;DHT22;35901;48.694;9.476;2023-03-01T08:51:44;4.20;99.30
50013;DHT22;35901;48.694;9.476;2023-03-01T08:54:14;3.80;99.00
50013;DHT22;35901;48.694;9.476;2023-03-01T08:56:40;4.00;99.90
50013;DHT22;35901;48.694;9.476;2023-03-01T08:59:07;4.70;99.30
50013;DHT22;35901;48.694;9.476;2023-03-01T09:01:32;4.70;98.70
50013;DHT22;35901;48.694;9.476;2023-03-01T09:03:58;5.10;98.60
50013;DHT22;35901;48.694;9.476;2023-03-01T09:06:25;5.40;98.20
50013;DHT22;35901;48.694;9.476;2023-03-01T09:08:50;5.60;97.30
50013;DHT22;35901;48.694;9.476;2023-03-01T09:11:18;5.40;97.70
50013;DHT22;35901;48.694;9.476;2023-03-01T09:13:46;5.50;97.00
50013;DHT22;35901;48.694;9.476;2023-03-01T09:16:13;5.60;97.00
50013;DHT22;35901;48.694;9.476;2023-03-01T09:18:40;5.60;97.10
50013;DHT22;35901;48.694;9.476;2023-03-01T09:21:08;5.10;98.10
50013;DHT22;35901;48.694;9.476;2023-03-01T09:23:39;5.50;97.80
50013;DHT22;35901;48.694;9.476;2023-03-01T09:26:11;5.60;97.10
50013;DHT22;35901;48.694;9.476;2023-03-01T09:28:37;5.50;96.20
50013;DHT22;35901;48.694;9.476;2023-03-01T09:31:03;5.40;97.00
50013;DHT22;35901;48.694;9.476;2023-03-01T09:33:31;5.40;96.90
50013;DHT22;35901;48.694;9.476;2023-03-01T09:36:05;5.10;96.00
50013;DHT22;35901;48.694;9.476;2023-03-01T09:38:33;4.20;97.30
50013;DHT22;35901;48.694;9.476;2023-03-01T09:41:02;4.40;98.50
50013;DHT22;35901;48.694;9.476;2023-03-01T09:43:47;4.60;97.60
50013;DHT22;35901;48.694;9.476;2023-03-01T09:46:20;6.20;96.20
50013;DHT22;35901;48.694;9.476;2023-03-01T09:49:09;6.00;96.20
50013;DHT22;35901;48.694;9.476;2023-03-01T09:51:36;5.60;95.70
50013;DHT22;35901;48.694;9.476;2023-03-01T09:54:03;6.30;96.40
50013;DHT22;35901;48.694;9.476;2023-03-01T09:56:36;6.50;95.40
50013;DHT22;35901;48.694;9.476;2023-03-01T10:02:17;6.00;94.80
50013;DHT22;35901;48.694;9.476;2023-03-01T10:04:52;5.80;96.50
50013;DHT22;35901;48.694;9.476;2023-03-01T10:09:51;6.50;95.10
50013;DHT22;35901;48.694;9.476;2023-03-01T10:12:33;6.20;95.50
50013;DHT22;35901;48.694;9.476;2023-03-01T10:22:43;6.90;94.80
50013;DHT22;35901;48.694;9.476;2023-03-01T10:25:14;6.90;94.90
50013;DHT22;35901;48.694;9.476;2023-03-01T10:27:54;6.60;92.90
50013;DHT22;35901;48.694;9.476;2023-03-01T10:30:36;7.90;93.40
50013;DHT22;35901;48.694;9.476;2023-03-01T10:33:21;7.80;93.80
50013;DHT22;35901;48.694;9.476;2023-03-01T10:35:47;7.60;92.40
50013;DHT22;35901;48.694;9.476;2023-03-01T10:38:15;7.20;92.70
50013;DHT22;35901;48.694;9.476;2023-03-01T10:40:56;6.90;93.20
50013;DHT22;35901;48.694;9.476;2023-03-01T10:43:27;7.70;93.00
50013;DHT22;35901;48.694;9.476;2023-03-01T10:45:57;8.40;92.10
50013;DHT22;35901;48.694;9.476;2023-03-01T10:48:25;8.30;92.20
50013;DHT22;35901;48.694;9.476;2023-03-01T10:53:32;8.10;91.80
50013;DHT22;35901;48.694;9.476;2023-03-01T10:56:12;8.20;91.40
50013;DHT22;35901;48.694;9.476;2023-03-01T10:58:41;8.40;92.20
50013;DHT22;35901;48.694;9.476;2023-03-01T11:03:41;8.20;91.30
50013;DHT22;35901;48.694;9.476;2023-03-01T11:08:46;8.40;91.80
50013;DHT22;35901;48.694;9.476;2023-03-01T11:11:21;8.60;91.80
50013;DHT22;35901;48.694;9.476;2023-03-01T11:17:01;9.00;90.90
50013;DHT22;35901;48.694;9.476;2023-03-01T11:19:27;9.10;91.00
50013;DHT22;35901;48.694;9.476;2023-03-01T11:22:16;9.10;91.00
50013;DHT22;35901;48.694;9.476;2023-03-01T11:24:50;8.60;91.60
50013;DHT22;35901;48.694;9.476;2023-03-01T11:27:25;9.00;90.50
50013;DHT22;35901;48.694;9.476;2023-03-01T11:32:35;8.70;89.90
50013;DHT22;35901;48.694;9.476;2023-03-01T11:35:16;8.80;91.80
50013;DHT22;35901;48.694;9.476;2023-03-01T11:40:41;9.10;90.80
50013;DHT22;35901;48.694;9.476;2023-03-01T11:46:27;8.90;91.50
50013;DHT22;35901;48.694;9.476;2023-03-01T11:54:50;9.20;87.20
50013;DHT22;35901;48.694;9.476;2023-03-01T12:06:28;9.10;87.00
50013;DHT22;35901;48.694;9.476;2023-03-01T12:18:25;9.30;86.60
50013;DHT22;35901;48.694;9.476;2023-03-01T12:21:11;9.60;86.80
50013;DHT22;35901;48.694;9.476;2023-03-01T12:24:07;9.30;88.20
50013;DHT22;35901;48.694;9.476;2023-03-01T12:42:27;9.20;87.30
50013;DHT22;35901;48.694;9.476;2023-03-01T12:51:04;9.10;88.40
50013;DHT22;35901;48.694;9.476;2023-03-01T12:53:35;9.60;89.50
50013;DHT22;35901;48.694;9.476;2023-03-01T12:56:07;9.50;87.40
50013;DHT22;35901;48.694;9.476;2023-03-01T13:07:28;8.90;90.20
50013;DHT22;35901;48.694;9.476;2023-03-01T13:12:50;9.60;89.70
50013;DHT22;35901;48.694;9.476;2023-03-01T13:17:50;9.30;89.90
50013;DHT22;35901;48.694;9.476;2023-03-01T13:20:18;8.90;90.00
50013;DHT22;35901;48.694;9.476;2023-03-01T13:22:45;9.10;88.50
50013;DHT22;35901;48.694;9.476;2023-03-01T13:25:17;8.80;86.90
50013;DHT22;35901;48.694;9.476;2023-03-01T13:27:44;9.00;89.60
50013;DHT22;35901;48.694;9.476;2023-03-01T13:33:39;9.40;87.00
50013;DHT22;35901;48.694;9.476;2023-03-01T13:36:08;9.40;87.60
50013;DHT22;35901;48.694;9.476;2023-03-01T13:44:21;9.20;86.40
50013;DHT22;35901;48.694;9.476;2023-03-01T13:46:47;9.40;87.10
50013;DHT22;35901;48.694;9.476;2023-03-01T13:49:16;10.20;84.70
50013;DHT22;35901;48.694;9.476;2023-03-01T13:51:47;9.40;85.60
50013;DHT22;35901;48.694;9.476;2023-03-01T13:54:15;8.70;86.00
50013;DHT22;35901;48.694;9.476;2023-03-01T13:56:41;8.80;86.10
50013;DHT22;35901;48.694;9.476;2023-03-01T13:59:20;8.80;88.20
50013;DHT22;35901;48.694;9.476;2023-03-01T14:02:00;9.70;85.90
50013;DHT22;35901;48.694;9.476;2023-03-01T14:04:27;9.80;84.30
50013;DHT22;35901;48.694;9.476;2023-03-01T14:07:19;9.40;85.10
50013;DHT22;35901;48.694;9.476;2023-03-01T14:09:47;9.10;84.90
50013;DHT22;35901;48.694;9.476;2023-03-01T14:17:59;9.10;86.70
50013;DHT22;35901;48.694;9.476;2023-03-01T14:20:30;9.70;86.20
50013;DHT22;35901;48.694;9.476;2023-03-01T14:22:59;9.40;88.00
50013;DHT22;35901;48.694;9.476;2023-03-01T14:25:31;8.80;86.20
50013;DHT22;35901;48.694;9.476;2023-03-01T14:28:36;8.70;88.30
50013;DHT22;35901;48.694;9.476;2023-03-01T14:33:55;8.60;88.80
50013;DHT22;35901;48.694;9.476;2023-03-01T14:36:29;9.30;85.80
50013;DHT22;35901;48.694;9.476;2023-03-01T14:38:55;9.10;86.50
50013;DHT22;35901;48.694;9.476;2023-03-01T14:41:27;8.70;86.50
50013;DHT22;35901;48.694;9.476;2023-03-01T14:43:59;9.00;86.90
50013;DHT22;35901;48.694;9.476;2023-03-01T14:46:34;8.30;86.90
50013;DHT22;35901;48.694;9.476;2023-03-01T14:49:13;8.80;88.00
50013;DHT22;35901;48.694;9.476;2023-03-01T14:51:43;8.70;86.60
50013;DHT22;35901;48.694;9.476;2023-03-01T14:57:04;8.60;87.40
50013;DHT22;35901;48.694;9.476;2023-03-01T14:59:30;8.20;87.80
50013;DHT22;35901;48.694;9.476;2023-03-01T15:01:59;8.20;87.40
50013;DHT22;35901;48.694;9.476;2023-03-01T15:04:26;8.10;86.90
50013;DHT22;35901;48.694;9.476;2023-03-01T15:06:54;8.10;86.50
50013;DHT22;35901;48.694;9.476;2023-03-01T15:09:21;8.00;87.00
50013;DHT22;35901;48.694;9.476;2023-03-01T15:11:49;8.00;87.20
50013;DHT22;35901;48.694;9.476;2023-03-01T15:14:42;7.70;88.90
50013;DHT22;35901;48.694;9.476;2023-03-01T15:17:36;8.10;87.80
50013;DHT22;35901;48.694;9.476;2023-03-01T15:20:06;7.90;86.70
50013;DHT22;35901;48.694;9.476;2023-03-01T15:22:33;7.60;86.80
50013;DHT22;35901;48.694;9.476;2023-03-01T15:24:58;7.30;89.40
50013;DHT22;35901;48.694;9.476;2023-03-01T15:27:26;7.50;89.90
50013;DHT22;35901;48.694;9.476;2023-03-01T15:30:06;7.80;89.60
50013;DHT22;35901;48.694;9.476;2023-03-01T15:32:36;7.70;87.90
50013;DHT22;35901;48.694;9.476;2023-03-01T15:35:43;7.50;88.30
50013;DHT22;35901;48.694;9.476;2023-03-01T15:40:54;7.40;87.70
50013;DHT22;35901;48.694;9.476;2023-03-01T15:43:44;7.50;87.50
50013;DHT22;35901;48.694;9.476;2023-03-01T15:46:18;7.20;89.00
50013;DHT22;35901;48.694;9.476;2023-03-01T15:48:46;7.00;90.00
50013;DHT22;35901;48.694;9.476;2023-03-01T15:51:13;6.90;90.30
50013;DHT22;35901;48.694;9.476;2023-03-01T15:53:40;6.90;89.20
50013;DHT22;35901;48.694;9.476;2023-03-01T15:56:06;6.90;88.40
50013;DHT22;35901;48.694;9.476;2023-03-01T15:58:33;6.80;90.20
50013;DHT22;35901;48.694;9.476;2023-03-01T16:00:59;6.60;89.80
50013;DHT22;35901;48.694;9.476;2023-03-01T16:03:26;6.60;89.70
50013;DHT22;35901;48.694;9.476;2023-03-01T16:05:52;6.50;89.90
50013;DHT22;35901;48.694;9.476;2023-03-01T16:08:18;6.50;90.50
50013;DHT22;35901;48.694;9.476;2023-03-01T16:10:44;6.40;90.20
50013;DHT22;35901;48.694;9.476;2023-03-01T16:13:14;6.30;90.50
50013;DHT22;35901;48.694;9.476;2023-03-01T16:15:40;6.30;90.10
50013;DHT22;35901;48.694;9.476;2023-03-01T16:18:06;6.30;90.50
50013;DHT22;35901;48.694;9.476;2023-03-01T16:20:34;6.20;90.60
50013;DHT22;35901;48.694;9.476;2023-03-01T16:23:02;6.20;90.60
50013;DHT22;35901;48.694;9.476;2023-03-01T16:25:28;6.20;90.20
50013;DHT22;35901;48.694;9.476;2023-03-01T16:27:54;6.10;90.40
50013;DHT22;35901;48.694;9.476;2023-03-01T16:30:22;6.10;90.40
50013;DHT22;35901;48.694;9.476;2023-03-01T16:32:48;6.00;90.30
50013;DHT22;35901;48.694;9.476;2023-03-01T16:35:17;5.80;90.60
50013;DHT22;35901;48.694;9.476;2023-03-01T16:37:44;5.70;90.90
50013;DHT22;35901;48.694;9.476;2023-03-01T16:40:19;5.50;91.70
50013;DHT22;35901;48.694;9.476;2023-03-01T16:42:50;5.50;91.10
50013;DHT22;35901;48.694;9.476;2023-03-01T16:45:16;5.60;91.20
50013;DHT22;35901;48.694;9.476;2023-03-01T16:47:42;5.50;91.30
50013;DHT22;35901;48.694;9.476;2023-03-01T16:50:08;5.40;91.60
50013;DHT22;35901;48.694;9.476;2023-03-01T16:52:34;5.30;91.50
50013;DHT22;35901;48.694;9.476;2023-03-01T16:55:00;5.10;91.90
50013;DHT22;35901;48.694;9.476;2023-03-01T16:57:25;5.00;91.70
50013;DHT22;35901;48.694;9.476;2023-03-01T16:59:54;4.90;91.80
50013;DHT22;35901;48.694;9.476;2023-03-01T17:02:20;4.90;91.80
50013;DHT22;35901;48.694;9.476;2023-03-01T17:04:55;4.70;91.60
50013;DHT22;35901;48.694;9.476;2023-03-01T17:07:22;4.60;92.20
50013;DHT22;35901;48.694;9.476;2023-03-01T17:09:48;4.50;92.20
50013;DHT22;35901;48.694;9.476;2023-03-01T17:12:14;4.30;92.20
50013;DHT22;35901;48.694;9.476;2023-03-01T17:14:41;4.20;92.40
50013;DHT22;35901;48.694;9.476;2023-03-01T17:17:08;4.20;92.50
50013;DHT22;35901;48.694;9.476;2023-03-01T17:19:34;4.30;92.20
50013;DHT22;35901;48.694;9.476;2023-03-01T17:22:02;4.40;92.10
50013;DHT22;35901;48.694;9.476;2023-03-01T17:24:28;4.40;92.20
50013;DHT22;35901;48.694;9.476;2023-03-01T17:26:57;4.20;92.10
50013;DHT22;35901;48.694;9.476;2023-03-01T17:29:22;4.30;92.20
50013;DHT22;35901;48.694;9.476;2023-03-01T17:31:48;4.30;92.10
50013;DHT22;35901;48.694;9.476;2023-03-01T17:34:14;4.20;92.20
50013;DHT22;35901;48.694;9.476;2023-03-01T17:36:41;4.10;92.40
50013;DHT22;35901;48.694;9.476;2023-03-01T17:39:09;4.00;92.80
50013;DHT22;35901;48.694;9.476;2023-03-01T17:41:35;3.90;92.60
50013;DHT22;35901;48.694;9.476;2023-03-01T17:44:01;3.90;92.70
50013;DHT22;35901;48.694;9.476;2023-03-01T17:46:29;3.80;92.60
50013;DHT22;35901;48.694;9.476;2023-03-01T17:48:55;3.90;92.70
50013;DHT22;35901;48.694;9.476;2023-03-01T17:51:21;3.80;92.70
50013;DHT22;35901;48.694;9.476;2023-03-01T17:53:46;3.70;92.70